Time;durP1;ratioP1;P1;durP2;ratioP2;P2;SDS_P1;SDS_P2;PMS_P1;PMS_P2;Temp;Humidity;BMP_temperature;BMP_pressure;BME280_temperature;BME280_humidity;BME280_pressure;Samples;Min_cycle;Max_cycle;Signal;HPM_P1;HPM_P2
2022/01/02 00:00:22;;;;;;;6.28;3.70;;;;;;;11.84;77.83;101746.09;5033890;28;20475;-67
2022/01/02 00:02:58;;;;;;;8.60;3.90;;;;;;;11.86;77.60;101745.28;5032165;28;20037;-67
2022/01/02 00:05:24;;;;;;;7.28;3.90;;;;;;;11.86;77.33;101739.06;5033821;28;20037;-68
2022/01/02 00:08:02;;;;;;;8.52;3.78;;;;;;;11.85;77.36;101738.19;5033767;28;20040;-65
2022/01/02 00:10:31;;;;;;;7.95;3.65;;;;;;;11.85;77.74;101740.81;5032367;28;20021;-68
2022/01/02 00:12:59;;;;;;;11.68;3.90;;;;;;;11.85;77.66;101751.41;5033768;28;20025;-67
2022/01/02 00:15:25;;;;;;;9.90;3.85;;;;;;;11.88;77.46;101754.13;5033560;28;20426;-67
2022/01/02 00:17:52;;;;;;;9.23;3.75;;;;;;;11.89;77.25;101761.22;5033677;28;20021;-68
2022/01/02 00:20:31;;;;;;;8.77;4.00;;;;;;;11.90;77.69;101775.34;5034038;28;20422;-67
2022/01/02 00:23:02;;;;;;;9.85;3.72;;;;;;;11.86;77.74;101774.41;5033311;28;20533;-68
2022/01/02 00:25:33;;;;;;;8.50;3.88;;;;;;;11.83;77.80;101774.34;5033509;28;20025;-67
2022/01/02 00:28:00;;;;;;;8.40;3.95;;;;;;;11.81;77.39;101761.88;5033388;28;20033;-67
2022/01/02 00:30:26;;;;;;;6.57;3.75;;;;;;;11.78;78.27;101765.38;5033606;28;20029;-67
2022/01/02 00:32:59;;;;;;;6.97;3.85;;;;;;;11.81;78.12;101762.78;5033589;28;20451;-67
2022/01/02 00:35:24;;;;;;;7.63;3.70;;;;;;;11.79;78.00;101746.88;5032010;28;20549;-66
2022/01/02 00:37:51;;;;;;;9.45;4.05;;;;;;;11.80;78.64;101739.81;5033346;28;20018;-67
2022/01/02 00:40:16;;;;;;;9.20;3.90;;;;;;;11.79;78.41;101740.69;5033272;28;20018;-67
2022/01/02 00:42:43;;;;;;;9.10;3.90;;;;;;;11.76;78.46;101737.97;5033393;28;20510;-67
2022/01/02 00:45:24;;;;;;;8.55;4.00;;;;;;;11.75;79.29;101746.78;5033218;28;20021;-67
2022/01/02 00:48:19;;;;;;;8.83;3.67;;;;;;;11.73;79.79;101751.13;5033208;28;20033;-67
2022/01/02 00:50:52;;;;;;;9.88;4.45;;;;;;;11.67;80.08;101749.25;5033210;28;20299;-67
2022/01/02 00:53:20;;;;;;;12.05;4.28;;;;;;;11.62;80.74;101740.34;5032883;28;20029;-68
2022/01/02 00:55:56;;;;;;;9.73;3.90;;;;;;;11.59;81.29;101747.31;5039673;28;20067;-68
2022/01/02 00:58:30;;;;;;;7.35;4.20;;;;;;;11.54;81.56;101736.63;5052997;28;20025;-67
2022/01/02 01:00:59;;;;;;;10.43;3.95;;;;;;;11.52;82.24;101743.66;5053083;28;20032;-69
2022/01/02 01:03:31;;;;;;;9.82;4.13;;;;;;;11.51;82.79;101736.56;5035124;28;20040;-66
2022/01/02 01:06:01;;;;;;;10.07;4.22;;;;;;;11.49;83.34;101730.34;5052825;28;20028;-66
2022/01/02 01:08:30;;;;;;;9.30;4.53;;;;;;;11.44;83.36;101732.03;5052726;28;20107;-66
2022/01/02 01:10:58;;;;;;;10.88;4.32;;;;;;;11.43;83.82;101727.56;5052797;28;20029;-66
2022/01/02 01:13:24;;;;;;;7.57;4.18;;;;;;;11.43;84.02;101724.91;5052976;28;20120;-66
2022/01/02 01:15:50;;;;;;;9.15;3.65;;;;;;;11.39;84.87;101715.13;5052878;28;20056;-66
2022/01/02 01:18:15;;;;;;;9.90;4.20;;;;;;;11.38;84.71;101708.94;5052810;28;20530;-65
2022/01/02 01:20:43;;;;;;;7.88;3.95;;;;;;;11.42;84.62;101718.72;5052675;28;20044;-66
2022/01/02 01:23:17;;;;;;;9.75;4.55;;;;;;;11.42;84.66;101712.56;5052679;28;20025;-66
2022/01/02 01:25:47;;;;;;;8.95;4.38;;;;;;;11.35;84.54;101702.69;5052720;28;20051;-65
2022/01/02 01:28:14;;;;;;;12.90;4.10;;;;;;;11.36;84.56;101691.28;5052603;28;20087;-66
2022/01/02 01:30:39;;;;;;;11.88;4.70;;;;;;;11.38;85.01;101697.47;5052754;28;20025;-65
2022/01/02 01:33:05;;;;;;;9.73;4.22;;;;;;;11.35;85.03;101700.03;5052585;28;20039;-66
2022/01/02 01:35:31;;;;;;;10.77;3.75;;;;;;;11.34;84.99;101698.25;5056392;28;20018;-67
2022/01/02 01:37:56;;;;;;;9.15;3.80;;;;;;;11.42;84.30;101692.28;5056659;28;20027;-65
2022/01/02 01:40:22;;;;;;;15.13;4.40;;;;;;;11.37;84.48;101686.00;5056433;28;20398;-66
2022/01/02 01:43:09;;;;;;;10.43;4.20;;;;;;;11.35;85.08;101666.56;5056405;28;20112;-66
2022/01/02 01:45:35;;;;;;;11.27;4.18;;;;;;;11.38;85.46;101678.94;5056705;28;20379;-67
2022/01/02 01:48:03;;;;;;;12.55;4.43;;;;;;;11.36;85.09;101689.50;5056317;28;20490;-66
2022/01/02 01:50:36;;;;;;;9.60;3.80;;;;;;;11.33;85.40;101676.22;5056472;28;20017;-67
2022/01/02 01:53:03;;;;;;;8.57;3.97;;;;;;;11.30;86.04;101662.91;5056168;28;20029;-67
2022/01/02 01:55:29;;;;;;;8.77;4.35;;;;;;;11.31;85.93;101666.47;5038070;28;20505;-66
2022/01/02 01:57:54;;;;;;;9.68;4.13;;;;;;;11.26;86.10;101661.06;5055810;28;20032;-66
2022/01/02 02:00:21;;;;;;;11.45;4.60;;;;;;;11.22;86.08;101653.91;5056027;28;20029;-66
2022/01/02 02:02:47;;;;;;;13.73;4.60;;;;;;;11.19;86.77;101657.41;5056021;28;20021;-66
2022/01/02 02:05:13;;;;;;;9.88;4.35;;;;;;;11.19;86.34;101643.28;5056086;28;20032;-66
2022/01/02 02:07:48;;;;;;;8.38;3.83;;;;;;;11.21;86.46;101638.91;5056153;28;20025;-65
2022/01/02 02:10:25;;;;;;;9.75;3.95;;;;;;;11.22;86.81;101635.38;5055838;28;20029;-65
2022/01/02 02:12:54;;;;;;;9.93;4.10;;;;;;;11.23;87.03;101631.91;5055940;28;20033;-66
2022/01/02 02:15:21;;;;;;;11.27;4.20;;;;;;;11.27;86.65;101624.06;5055722;28;20028;-66
2022/01/02 02:17:49;;;;;;;11.10;4.07;;;;;;;11.31;86.51;101622.38;5055899;28;20021;-65
2022/01/02 02:20:15;;;;;;;11.90;4.53;;;;;;;11.32;86.76;101618.88;5037877;28;20061;-66
2022/01/02 02:22:42;;;;;;;12.77;4.13;;;;;;;11.31;86.48;101595.94;5055974;28;20055;-66
2022/01/02 02:25:10;;;;;;;10.98;4.30;;;;;;;11.35;86.67;101613.66;5037749;28;20028;-66
2022/01/02 02:27:36;;;;;;;9.10;4.10;;;;;;;11.36;85.94;101604.84;5055416;28;20025;-66
2022/01/02 02:30:03;;;;;;;12.90;4.60;;;;;;;11.38;85.63;101611.03;5055554;28;20104;-66
2022/01/02 02:32:28;;;;;;;13.05;4.18;;;;;;;11.42;85.64;101601.41;5055470;28;20075;-66
2022/01/02 02:34:54;;;;;;;12.02;3.85;;;;;;;11.39;86.05;101610.19;5055522;28;20032;-67
2022/01/02 02:37:19;;;;;;;12.90;4.18;;;;;;;11.39;86.15;101598.69;5055460;28;20470;-66
2022/01/02 02:39:44;;;;;;;11.05;4.00;;;;;;;11.39;86.15;101596.97;5055334;28;20425;-66
2022/01/02 02:42:22;;;;;;;11.00;4.25;;;;;;;11.37;86.00;101606.63;5055424;28;20025;-66
2022/01/02 02:44:57;;;;;;;12.05;4.40;;;;;;;11.39;85.53;101588.09;5054594;28;20029;-66
2022/01/02 02:50:11;;;;;;;15.32;4.47;;;;;;;11.37;86.11;101581.91;4993899;28;20062;-66
2022/01/02 02:52:44;;;;;;;7.45;3.90;;;;;;;11.41;85.47;101578.47;4993846;28;20121;-66
2022/01/02 02:55:10;;;;;;;12.35;4.70;;;;;;;11.36;85.84;101569.56;4993573;28;20499;-66
2022/01/02 02:57:38;;;;;;;13.77;4.55;;;;;;;11.35;85.94;101573.03;4993488;28;20078;-66
2022/01/02 03:00:05;;;;;;;10.27;4.32;;;;;;;11.33;85.84;101562.44;4993840;28;20165;-67
2022/01/02 03:02:31;;;;;;;9.45;4.18;;;;;;;11.34;85.90;101560.66;4993299;28;20602;-66
2022/01/02 03:04:56;;;;;;;11.05;4.40;;;;;;;11.32;85.96;101547.44;4993570;28;20023;-66
2022/01/02 03:07:26;;;;;;;10.90;4.60;;;;;;;11.36;86.34;101566.91;4993625;28;20476;-66
2022/01/02 03:09:53;;;;;;;8.20;4.53;;;;;;;11.35;86.35;101562.44;4993246;28;20038;-66
2022/01/02 03:12:19;;;;;;;9.02;4.10;;;;;;;11.34;86.59;101569.50;4993624;28;20034;-66
2022/01/02 03:14:44;;;;;;;11.35;5.00;;;;;;;11.34;86.53;101563.31;4993407;28;20114;-66
2022/01/02 03:17:10;;;;;;;11.07;4.45;;;;;;;11.35;86.25;101555.44;4993341;28;20117;-67
2022/01/02 03:19:36;;;;;;;13.98;4.45;;;;;;;11.35;86.78;101558.06;4993258;28;20034;-66
2022/01/02 03:22:02;;;;;;;9.50;4.63;;;;;;;11.34;86.62;101556.28;4993286;28;20030;-66
2022/01/02 03:24:28;;;;;;;11.55;4.50;;;;;;;11.29;86.71;101556.19;4976653;28;20018;-66
2022/01/02 03:26:53;;;;;;;10.68;4.32;;;;;;;11.34;86.76;101563.31;5017011;28;20463;-66
2022/01/02 03:29:19;;;;;;;9.07;4.15;;;;;;;11.34;86.75;101563.31;5054578;28;20057;-66
2022/01/02 03:31:56;;;;;;;12.02;4.07;;;;;;;11.34;87.20;101558.91;5054378;28;20466;-67
2022/01/02 03:34:22;;;;;;;13.48;4.47;;;;;;;11.34;87.47;101558.91;5054377;28;20112;-66
2022/01/02 03:36:47;;;;;;;12.93;4.15;;;;;;;11.32;87.40;101563.31;5054298;28;20108;-65
2022/01/02 03:39:13;;;;;;;13.13;3.97;;;;;;;11.29;87.23;101573.81;5054055;28;20417;-66
2022/01/02 03:41:41;;;;;;;11.65;4.63;;;;;;;11.29;87.52;101564.13;5054269;28;20063;-66
2022/01/02 03:44:07;;;;;;;10.43;4.85;;;;;;;11.27;87.78;101571.16;5054277;28;20086;-66
2022/01/02 03:46:32;;;;;;;11.25;4.65;;;;;;;11.29;87.85;101564.13;5054060;28;20482;-66
2022/01/02 03:48:57;;;;;;;14.18;4.47;;;;;;;11.28;87.94;101561.47;5054330;28;20516;-66
2022/01/02 03:51:23;;;;;;;9.35;4.20;;;;;;;11.26;88.10;101556.16;5054200;28;20430;-66
2022/01/02 03:53:49;;;;;;;12.90;4.22;;;;;;;11.25;87.53;101545.50;5053850;28;20044;-66
2022/01/02 03:56:16;;;;;;;10.68;4.35;;;;;;;11.24;88.06;101547.28;5035392;28;20045;-66
2022/01/02 03:58:41;;;;;;;14.55;4.53;;;;;;;11.21;87.91;101549.84;5054122;28;20021;-66
2022/01/02 04:01:06;;;;;;;11.93;4.32;;;;;;;11.23;88.38;101541.97;5053809;28;20101;-66
2022/01/02 04:03:32;;;;;;;15.20;4.50;;;;;;;11.21;87.86;101523.41;5053840;28;20702;-66
2022/01/02 04:05:57;;;;;;;12.00;4.25;;;;;;;11.22;87.98;101524.28;5035942;28;20063;-66
2022/01/02 04:08:22;;;;;;;11.02;4.15;;;;;;;11.19;88.14;101505.72;5053623;28;20029;-66
2022/01/02 04:10:48;;;;;;;12.98;4.10;;;;;;;11.25;87.21;101519.06;5053591;28;20068;-66
2022/01/02 04:13:13;;;;;;;11.65;4.45;;;;;;;11.28;87.17;101509.44;5053850;28;20032;-66
2022/01/02 04:15:39;;;;;;;11.18;4.53;;;;;;;11.29;87.47;101499.75;5053749;28;20047;-66
2022/01/02 04:18:04;;;;;;;8.85;4.22;;;;;;;11.30;86.95;101504.16;5053742;28;20079;-66
2022/01/02 04:20:30;;;;;;;12.23;4.05;;;;;;;11.33;87.13;101500.69;5053522;28;20471;-67
2022/01/02 04:22:55;;;;;;;10.55;3.95;;;;;;;11.34;86.96;101502.47;5053495;28;20079;-66
2022/01/02 04:25:21;;;;;;;12.70;4.15;;;;;;;11.31;87.45;101503.31;5053282;28;20382;-66
2022/01/02 04:27:46;;;;;;;14.02;4.00;;;;;;;11.29;87.65;101503.28;5053307;28;20047;-67
2022/01/02 04:30:13;;;;;;;8.68;3.78;;;;;;;11.29;87.20;101505.91;5053546;28;20028;-66
2022/01/02 04:32:39;;;;;;;12.05;4.50;;;;;;;11.26;87.62;101497.94;5053315;28;20394;-66
2022/01/02 04:35:04;;;;;;;11.23;4.25;;;;;;;11.27;87.77;101520.00;5053262;28;20025;-66
2022/01/02 04:37:31;;;;;;;11.40;4.40;;;;;;;11.23;88.31;101500.53;5035385;28;20104;-66
2022/01/02 04:39:56;;;;;;;16.45;5.20;;;;;;;11.24;87.81;101496.13;5053030;28;20025;-66
2022/01/02 04:42:22;;;;;;;11.32;4.03;;;;;;;11.21;88.41;101493.41;5053113;28;20463;-66
2022/01/02 04:44:47;;;;;;;14.20;4.47;;;;;;;11.21;87.90;101483.72;5053243;28;20030;-67
2022/01/02 04:47:12;;;;;;;10.93;4.28;;;;;;;11.18;88.27;101481.03;5053241;28;20025;-66
2022/01/02 04:49:38;;;;;;;14.32;3.92;;;;;;;11.16;88.48;101464.22;5053051;28;20159;-66
2022/01/02 04:52:03;;;;;;;13.52;4.22;;;;;;;11.13;88.31;101461.53;5053054;28;20048;-66
2022/01/02 04:54:29;;;;;;;8.18;4.00;;;;;;;11.13;88.34;101460.63;5053201;28;20033;-66
2022/01/02 04:56:56;;;;;;;10.70;4.00;;;;;;;11.11;88.73;101460.63;5052543;28;20057;-67
2022/01/02 04:59:21;;;;;;;11.38;4.60;;;;;;;11.07;89.15;101444.66;5035127;28;20082;-67
2022/01/02 05:01:52;;;;;;;12.20;4.35;;;;;;;11.07;88.90;101440.25;5053102;28;20096;-66
2022/01/02 05:04:17;;;;;;;14.25;4.53;;;;;;;11.08;88.87;101431.47;5052891;28;20029;-66
2022/01/02 05:06:42;;;;;;;17.48;5.18;;;;;;;11.07;88.96;101420.88;5052768;28;20029;-66
2022/01/02 05:09:08;;;;;;;13.77;4.82;;;;;;;11.07;88.46;101410.28;5054376;28;20050;-66
2022/01/02 05:11:33;;;;;;;12.63;4.13;;;;;;;11.04;88.49;101411.09;5056867;28;20017;-67
2022/01/02 05:13:59;;;;;;;11.43;4.22;;;;;;;11.01;88.89;101389.91;5056938;28;20079;-67
2022/01/02 05:16:24;;;;;;;12.43;4.30;;;;;;;11.04;88.40;101401.41;5056909;28;20025;-66
2022/01/02 05:18:49;;;;;;;10.02;4.07;;;;;;;11.03;88.76;101389.06;5056922;28;20087;-67
2022/01/02 05:21:15;;;;;;;16.00;4.50;;;;;;;11.00;89.05;101391.66;5056893;28;20053;-67
2022/01/02 05:23:42;;;;;;;11.85;4.47;;;;;;;10.99;88.96;101392.50;5056828;28;20043;-67
2022/01/02 05:26:08;;;;;;;11.63;3.97;;;;;;;11.01;88.88;101390.81;5056639;28;20033;-67
2022/01/02 05:28:33;;;;;;;12.80;4.40;;;;;;;11.01;89.19;101398.75;5056227;28;20044;-67
2022/01/02 05:30:58;;;;;;;12.57;4.28;;;;;;;10.99;88.97;101387.22;5056676;28;20029;-67
2022/01/02 05:33:24;;;;;;;11.13;4.15;;;;;;;10.98;89.10;101384.56;5038667;28;20032;-67
2022/01/02 05:35:49;;;;;;;12.70;4.28;;;;;;;10.96;89.12;101375.69;5057001;28;20024;-67
2022/01/02 05:38:16;;;;;;;12.35;4.40;;;;;;;10.96;89.21;101375.69;5056465;28;20029;-67
2022/01/02 05:40:41;;;;;;;8.38;4.07;;;;;;;10.94;89.83;101372.16;5056474;28;20070;-67
2022/01/02 05:43:08;;;;;;;12.48;4.35;;;;;;;10.92;89.41;101365.94;5056391;28;20067;-66
2022/01/02 05:45:33;;;;;;;7.32;3.83;;;;;;;10.91;89.61;101365.03;5056466;28;20033;-67
2022/01/02 05:48:02;;;;;;;12.65;4.30;;;;;;;10.89;89.85;101357.97;5056331;28;20416;-67
2022/01/02 05:50:28;;;;;;;10.18;4.10;;;;;;;10.91;89.10;101357.13;5056682;28;20021;-65
2022/01/02 05:52:53;;;;;;;7.72;3.58;;;;;;;10.91;89.06;101359.75;5056297;28;20040;-66
2022/01/02 05:55:19;;;;;;;12.60;4.00;;;;;;;10.92;89.02;101348.34;5056215;28;20122;-66
2022/01/02 05:57:46;;;;;;;9.73;3.80;;;;;;;10.94;88.83;101332.50;5055982;28;20053;-66
2022/01/02 06:00:12;;;;;;;10.80;4.13;;;;;;;10.92;88.42;101318.34;5038303;28;20166;-66
2022/01/02 06:02:37;;;;;;;11.40;4.00;;;;;;;10.93;88.02;101315.75;5056167;28;20111;-66
2022/01/02 06:05:04;;;;;;;12.20;3.65;;;;;;;11.00;88.24;101306.13;5056067;28;20033;-66
2022/01/02 06:07:33;;;;;;;12.88;4.13;;;;;;;10.97;88.19;101292.88;5055971;28;20033;-67
2022/01/02 06:09:59;;;;;;;7.65;3.75;;;;;;;10.97;88.06;101298.19;5056121;28;20424;-66
2022/01/02 06:12:25;;;;;;;10.38;3.75;;;;;;;11.00;88.02;101284.97;5055839;28;20111;-66
2022/01/02 06:14:50;;;;;;;9.63;3.17;;;;;;;10.97;87.81;101279.66;5055887;28;20112;-66
2022/01/02 06:17:16;;;;;;;9.15;3.50;;;;;;;10.98;87.97;101279.69;5055780;28;20040;-66
2022/01/02 06:19:41;;;;;;;18.13;3.75;;;;;;;10.94;87.94;101267.28;5055543;28;20028;-66
2022/01/02 06:22:13;;;;;;;8.75;3.38;;;;;;;10.96;87.85;101273.50;5055718;28;20075;-66
2022/01/02 06:24:38;;;;;;;8.13;3.17;;;;;;;10.96;87.89;101260.28;5055612;28;20414;-66
2022/01/02 06:27:04;;;;;;;8.73;3.20;;;;;;;10.96;86.94;101241.75;5055461;28;20071;-66
2022/01/02 06:29:29;;;;;;;10.30;3.47;;;;;;;11.02;86.79;101239.19;5055519;28;20500;-66
2022/01/02 06:31:57;;;;;;;8.20;3.50;;;;;;;11.05;86.84;101235.72;5055592;28;20029;-66
2022/01/02 06:34:22;;;;;;;8.27;3.25;;;;;;;11.10;86.50;101220.81;5055676;28;20028;-66
2022/01/02 06:36:48;;;;;;;5.90;3.00;;;;;;;11.11;85.69;101217.28;5055493;28;20378;-66
2022/01/02 06:39:13;;;;;;;10.52;3.38;;;;;;;11.14;85.91;101201.47;5055329;28;20029;-66
2022/01/02 06:41:39;;;;;;;8.73;3.47;;;;;;;11.10;85.74;101173.19;5055327;28;20028;-66
2022/01/02 06:44:04;;;;;;;8.15;3.17;;;;;;;11.10;85.85;101190.84;5055224;28;20036;-66
2022/01/02 06:46:30;;;;;;;10.00;3.28;;;;;;;11.07;85.46;101165.22;5055295;28;20067;-68
2022/01/02 06:48:55;;;;;;;8.48;3.60;;;;;;;11.08;85.50;101153.75;5055215;28;20033;-66
2022/01/02 06:51:20;;;;;;;7.20;3.45;;;;;;;11.11;85.43;101142.34;5055159;28;20056;-66
2022/01/02 06:53:46;;;;;;;11.02;3.70;;;;;;;11.00;85.71;101118.41;5055024;28;20021;-66
2022/01/02 06:56:11;;;;;;;8.00;3.70;;;;;;;10.99;85.79;101135.13;5054792;28;20056;-66
2022/01/02 06:58:38;;;;;;;9.35;3.60;;;;;;;10.97;86.25;101123.66;5054904;28;20367;-66
2022/01/02 07:01:05;;;;;;;7.35;3.28;;;;;;;10.93;86.08;101135.06;5054929;28;20191;-66
2022/01/02 07:03:32;;;;;;;10.98;3.17;;;;;;;10.93;86.32;101127.13;5055033;28;20394;-67
2022/01/02 07:05:59;;;;;;;8.70;3.47;;;;;;;10.94;85.43;101127.13;5055025;28;20024;-66
2022/01/02 07:08:25;;;;;;;6.95;2.97;;;;;;;10.94;84.58;101110.41;5054707;28;20086;-66
2022/01/02 07:10:50;;;;;;;8.32;3.33;;;;;;;11.00;84.55;101111.34;5055054;28;20525;-66
2022/01/02 07:13:15;;;;;;;8.93;3.40;;;;;;;11.00;85.03;101110.47;5054897;28;20060;-66
2022/01/02 07:15:41;;;;;;;6.30;3.25;;;;;;;11.01;84.73;101122.84;5054675;28;20025;-66
2022/01/02 07:18:06;;;;;;;10.98;3.13;;;;;;;10.99;85.00;101129.84;5054717;28;20021;-67
2022/01/02 07:20:32;;;;;;;7.47;3.20;;;;;;;11.05;84.13;101127.31;5054742;28;20077;-66
2022/01/02 07:22:57;;;;;;;6.57;3.10;;;;;;;11.06;84.29;101130.84;5054664;28;20025;-66
2022/01/02 07:25:23;;;;;;;9.43;3.20;;;;;;;11.04;83.69;101141.38;5054447;28;20040;-66
2022/01/02 07:27:48;;;;;;;8.52;3.20;;;;;;;11.09;83.61;101130.84;5054434;28;20049;-66
2022/01/02 07:30:14;;;;;;;8.35;3.55;;;;;;;11.03;83.19;101116.69;5054303;28;20025;-66
2022/01/02 07:32:39;;;;;;;6.93;3.22;;;;;;;11.07;83.48;101111.44;5053839;28;20025;-66
2022/01/02 07:35:06;;;;;;;10.80;3.13;;;;;;;11.06;83.51;101099.97;5054516;28;20029;-67
2022/01/02 07:37:36;;;;;;;7.28;3.22;;;;;;;11.06;82.78;101089.41;5054478;28;20025;-66
2022/01/02 07:40:04;;;;;;;7.80;3.60;;;;;;;11.07;82.71;101093.81;5036442;28;20405;-66
2022/01/02 07:42:30;;;;;;;6.70;3.00;;;;;;;11.09;82.28;101102.69;5054227;28;20033;-66
2022/01/02 07:44:55;;;;;;;8.65;3.00;;;;;;;11.15;81.35;101110.66;5054048;28;20355;-66
2022/01/02 07:47:21;;;;;;;8.30;2.90;;;;;;;11.27;80.51;101100.25;5054261;28;20032;-66
2022/01/02 07:49:46;;;;;;;7.47;3.05;;;;;;;11.26;81.15;101098.47;5054117;28;20463;-66
2022/01/02 07:52:12;;;;;;;8.20;2.85;;;;;;;11.26;80.17;101117.00;5054101;28;20425;-66
2022/01/02 07:54:38;;;;;;;6.47;3.00;;;;;;;11.29;80.71;101124.06;5053915;28;20017;-66
2022/01/02 07:57:04;;;;;;;8.05;2.88;;;;;;;11.28;80.91;101111.72;5053610;28;20065;-66
2022/01/02 07:59:30;;;;;;;8.30;3.25;;;;;;;11.26;81.20;101137.25;5053693;28;20025;-66
2022/01/02 08:01:56;;;;;;;6.47;3.03;;;;;;;11.24;82.37;101139.00;5053684;28;20742;-66
2022/01/02 08:04:21;;;;;;;8.05;3.13;;;;;;;11.23;81.83;101155.75;5053761;28;20071;-67
2022/01/02 08:06:47;;;;;;;7.38;3.10;;;;;;;11.20;82.19;101160.97;5053661;28;20500;-67
2022/01/02 08:09:12;;;;;;;5.60;2.72;;;;;;;11.16;82.64;101144.19;5053619;28;20037;-67
2022/01/02 08:11:41;;;;;;;6.70;3.20;;;;;;;11.13;82.95;101122.09;5053471;28;20021;-66
2022/01/02 08:14:07;;;;;;;10.63;3.72;;;;;;;11.09;83.49;101130.84;5053300;28;20025;-67
2022/01/02 08:16:33;;;;;;;9.60;3.10;;;;;;;11.07;83.24;101135.25;5053013;28;20024;-66
2022/01/02 08:19:02;;;;;;;7.18;3.65;;;;;;;11.09;83.06;101146.72;5053042;28;20147;-66
2022/01/02 08:21:27;;;;;;;8.52;3.08;;;;;;;11.06;83.70;101146.69;5035216;28;20021;-67
2022/01/02 08:23:53;;;;;;;6.40;3.30;;;;;;;11.07;83.22;101145.81;5052855;28;20028;-67
2022/01/02 08:26:18;;;;;;;5.40;3.03;;;;;;;11.07;83.52;101156.41;5053163;28;20117;-67
2022/01/02 08:28:44;;;;;;;11.20;3.30;;;;;;;11.05;83.58;101156.41;5052668;28;20055;-67
2022/01/02 08:31:09;;;;;;;8.38;3.40;;;;;;;11.07;83.44;101140.53;5052732;28;20025;-66
2022/01/02 08:33:34;;;;;;;9.05;3.25;;;;;;;11.04;84.16;101125.50;5052789;28;20025;-66
2022/01/02 08:36:00;;;;;;;9.40;3.58;;;;;;;11.02;83.34;101122.84;5052771;28;20021;-67
2022/01/02 08:38:28;;;;;;;8.20;3.10;;;;;;;11.06;83.45;101149.34;5052508;28;20100;-67
2022/01/02 08:40:56;;;;;;;8.18;3.05;;;;;;;11.07;82.18;101144.06;5052795;28;20112;-67
2022/01/02 08:43:22;;;;;;;8.02;3.10;;;;;;;11.13;81.65;101122.97;5052795;28;20029;-67
2022/01/02 08:45:47;;;;;;;5.95;2.70;;;;;;;11.18;81.32;101142.47;5052249;28;20021;-66
2022/01/02 08:48:13;;;;;;;5.05;2.88;;;;;;;11.19;80.54;101128.34;5052462;28;20064;-68
2022/01/02 08:50:38;;;;;;;6.78;3.17;;;;;;;11.29;80.08;101134.66;5052505;28;20494;-67
2022/01/02 08:53:04;;;;;;;5.38;3.28;;;;;;;11.36;79.55;101143.56;5052498;28;20078;-67
2022/01/02 08:55:29;;;;;;;10.18;2.90;;;;;;;11.43;79.31;101148.03;5052350;28;20104;-67
2022/01/02 08:57:55;;;;;;;7.05;3.20;;;;;;;11.45;79.23;101147.19;5051990;28;20040;-66
2022/01/02 09:00:22;;;;;;;8.63;3.75;;;;;;;11.53;78.26;101156.13;5052226;28;20037;-68
2022/01/02 09:02:51;;;;;;;7.53;3.50;;;;;;;11.56;78.68;101152.59;5052309;28;20031;-67
2022/01/02 09:05:16;;;;;;;6.00;3.30;;;;;;;11.62;77.86;101143.88;5052502;28;20466;-67
2022/01/02 09:07:41;;;;;;;6.13;3.35;;;;;;;11.58;78.12;101142.06;5052186;28;20087;-67
2022/01/02 09:10:07;;;;;;;7.07;3.50;;;;;;;11.63;78.00;101162.41;5052345;28;20083;-67
2022/01/02 09:12:33;;;;;;;8.80;3.35;;;;;;;11.64;77.75;101143.00;5052299;28;20032;-66
2022/01/02 09:14:58;;;;;;;7.20;3.28;;;;;;;11.64;78.15;101132.41;5052433;28;20020;-67
2022/01/02 09:17:24;;;;;;;6.28;3.38;;;;;;;11.67;77.92;101137.75;5052224;28;20025;-67
2022/01/02 09:19:51;;;;;;;8.32;3.88;;;;;;;11.72;77.90;101140.44;5034518;28;20032;-67
2022/01/02 09:22:17;;;;;;;8.02;3.63;;;;;;;11.76;77.43;101129.88;5052296;28;20057;-68
2022/01/02 09:24:42;;;;;;;8.00;3.70;;;;;;;11.86;78.01;101135.31;5052387;28;20055;-66
2022/01/02 09:27:08;;;;;;;7.95;4.15;;;;;;;11.92;77.69;101138.91;5052245;28;20025;-67
2022/01/02 09:29:33;;;;;;;7.18;4.13;;;;;;;12.03;77.43;101128.41;5052162;28;20107;-67
2022/01/02 09:31:59;;;;;;;9.88;4.18;;;;;;;12.32;77.12;101141.91;5052423;28;20025;-67
2022/01/02 09:34:24;;;;;;;9.70;4.07;;;;;;;12.77;75.68;101138.75;5052323;28;20485;-67
2022/01/02 09:36:50;;;;;;;7.57;3.85;;;;;;;13.25;74.30;101142.56;5052404;28;20032;-67
2022/01/02 09:39:15;;;;;;;7.30;3.80;;;;;;;13.71;73.56;101137.44;5034110;28;20021;-67
2022/01/02 09:41:41;;;;;;;7.95;4.05;;;;;;;14.12;70.63;101146.34;5052150;28;20539;-66
2022/01/02 09:44:07;;;;;;;9.25;3.72;;;;;;;14.17;70.18;101147.22;5052075;28;20533;-66
2022/01/02 09:46:33;;;;;;;9.45;4.30;;;;;;;13.93;71.08;101146.31;5052099;28;20036;-66
2022/01/02 09:49:01;;;;;;;6.97;4.03;;;;;;;13.85;70.60;101150.72;5051873;28;20033;-67
2022/01/02 09:51:26;;;;;;;11.32;4.45;;;;;;;13.82;71.28;101166.66;5052072;28;20025;-67
2022/01/02 09:53:55;;;;;;;7.03;4.03;;;;;;;13.68;71.92;101156.00;5051976;28;20029;-66
2022/01/02 09:56:22;;;;;;;11.45;4.30;;;;;;;13.58;71.97;101154.22;5055099;28;20021;-66
2022/01/02 09:58:48;;;;;;;6.88;3.70;;;;;;;13.62;71.51;101141.78;5055926;28;20052;-66
2022/01/02 10:01:20;;;;;;;11.40;4.32;;;;;;;13.73;72.11;101156.91;5055661;28;20106;-67
2022/01/02 10:03:50;;;;;;;7.00;3.95;;;;;;;13.89;71.48;101151.63;5037975;28;20021;-66
2022/01/02 10:06:17;;;;;;;7.75;4.22;;;;;;;14.01;71.07;101147.22;5055612;28;20020;-69
2022/01/02 10:08:43;;;;;;;7.40;3.90;;;;;;;14.09;69.79;101163.19;5055532;28;20032;-67
2022/01/02 10:11:20;;;;;;;8.13;4.05;;;;;;;14.18;70.32;101160.53;5055380;28;20033;-66
2022/01/02 10:13:47;;;;;;;12.45;4.38;;;;;;;14.23;69.57;101158.75;5055574;28;20029;-67
2022/01/02 10:16:21;;;;;;;9.70;4.20;;;;;;;14.39;70.79;101164.06;5055314;28;20040;-66
2022/01/02 10:18:48;;;;;;;7.57;4.00;;;;;;;14.29;70.21;101160.53;5055566;28;20056;-67
2022/01/02 10:21:29;;;;;;;7.13;3.72;;;;;;;14.11;71.08;101164.06;5055242;28;20537;-67
2022/01/02 10:24:16;;;;;;;8.30;3.95;;;;;;;13.92;71.40;101156.97;5055490;28;20028;-66
2022/01/02 10:27:14;;;;;;;8.30;4.00;;;;;;;13.73;72.05;101151.56;5055181;28;20029;-66
2022/01/02 10:29:50;;;;;;;9.35;4.40;;;;;;;13.58;71.39;101154.22;4954716;29;20051;-66
2022/01/02 10:32:28;;;;;;;10.55;4.13;;;;;;;13.46;72.36;101146.19;4955145;29;20489;-67
2022/01/02 10:35:07;;;;;;;10.25;3.90;;;;;;;13.36;72.79;101137.31;4954776;29;20027;-66
2022/01/02 10:37:33;;;;;;;7.90;4.15;;;;;;;13.31;72.92;101140.81;4954934;29;20027;-66
2022/01/02 10:39:58;;;;;;;11.07;4.40;;;;;;;13.24;73.42;101138.16;4954504;29;20035;-66
2022/01/02 10:42:27;;;;;;;9.07;4.13;;;;;;;13.21;73.59;101138.09;4954854;29;20039;-66
2022/01/02 10:44:53;;;;;;;10.40;4.00;;;;;;;13.30;74.33;101131.97;4954668;28;20139;-68
2022/01/02 10:47:24;;;;;;;12.85;4.50;;;;;;;13.39;73.33;101132.00;4954806;29;20150;-67
2022/01/02 10:50:04;;;;;;;13.02;4.40;;;;;;;13.35;73.77;101134.63;4938526;29;20910;-66
2022/01/02 10:52:40;;;;;;;6.78;3.53;;;;;;;13.30;73.58;101133.72;4954664;29;20058;-66
2022/01/02 10:55:18;;;;;;;6.82;3.80;;;;;;;13.22;73.99;101128.34;4954374;28;20128;-68
2022/01/02 10:57:49;;;;;;;9.43;3.83;;;;;;;13.23;74.05;101135.47;4954401;29;20262;-69
2022/01/02 11:00:22;;;;;;;7.38;4.10;;;;;;;13.20;73.94;101128.38;4954311;29;20035;-69
2022/01/02 11:02:53;;;;;;;7.95;3.95;;;;;;;13.19;74.19;101137.22;4954500;29;20035;-66
2022/01/02 11:05:21;;;;;;;11.35;3.72;;;;;;;13.16;74.45;101142.50;4996870;28;20064;-65
2022/01/02 11:07:58;;;;;;;8.20;3.72;;;;;;;13.15;74.60;101140.72;5033371;28;20025;-66
2022/01/02 11:10:24;;;;;;;9.57;3.75;;;;;;;13.14;74.67;101136.28;5034427;28;20220;-66
2022/01/02 11:12:53;;;;;;;9.07;3.92;;;;;;;13.19;74.89;101133.63;5034227;28;20585;-65
2022/01/02 11:15:22;;;;;;;10.93;3.85;;;;;;;13.41;74.07;101135.56;5034441;28;20025;-65
2022/01/02 11:17:49;;;;;;;9.93;4.18;;;;;;;13.69;73.36;101125.91;5034323;28;20073;-65
2022/01/02 11:20:28;;;;;;;13.20;4.13;;;;;;;13.93;72.54;101146.31;5034642;28;20437;-66
2022/01/02 11:23:06;;;;;;;11.55;4.13;;;;;;;14.17;72.04;101136.59;5034222;28;20118;-66
2022/01/02 11:25:56;;;;;;;7.95;3.72;;;;;;;14.45;72.34;101141.03;5034044;28;20037;-65